East Rutherford, NJ (07073)

1:06 PM EDT on September 04, 2015 (GMT -0400)
East Rutherford Fire | | Change Station
CLOSE
Current Station
Personal Weather Station
Location: East Rutherford, NJ
Elevation: 79 ft
Nearby Weather Stations

Elev 79 ft 40.84 °N, 74.10 °W | Updated 1 second ago

Partly Cloudy
Partly Cloudy
80.6 °F
Feels Like 84 °F
N
2.9
Wind Variable Wind from NNW
Gusts 4.9 mph

Today
High -- | Low -- °F
--% Chance of Precip.
Yesterday
High -- | Low -- °F
Precip. -- in
6:25 AM 7:24 PM
Waning Gibbous, 58% visible
Pressure 30.09 in
Visibility 10.0 miles
Clouds Few 3100 ft
Heat Index 84 °F
Dew Point 69 °F
Humidity 68%
Rainfall 0.00 in
Snow Depth Not available.
UV 3.0 out of 12
Pollen 9.00 out of 12
Air Quality Not available.
Flu Activity Not available.
METAR KTEB 041651Z 06010G15KT 10SM FEW031 27/19 A3009 RMK AO2 SLP188 T02720189
Pressure 30.09 in
Visibility 10.0 miles
Clouds Few 3100 ft
Heat Index 84 °F
Dew Point 69 °F
Humidity 68%
Rainfall 0.00 in
Snow Depth Not available.
UV 3.0 out of 12
Pollen 9.00 out of 12
Air Quality Not available.
Flu Activity Not available.
METAR KTEB 041651Z 06010G15KT 10SM FEW031 27/19 A3009 RMK AO2 SLP188 T02720189

10-Day Weather Forecast

×

Almanac

Astronomy

Sep. 04, 2015 Rise Set
Actual Time
Civil Twilight
Nautical Twilight
Astronomical Twilight
Moon
Length of Visible Light
Length of Day
Tomorrow will be .
, % of the Moon is Illuminated

Today's Extremes

State Highs State Lows

Community

WunderPhotos

Upload Photos

1,852,230 photos uploaded!

WunderBlogs® & News

Nearby

Air Quality

  Air Quality AQ Index Pollutant
Not available.

Snow Depth

Station Depth Elevation

Earthquake Activity

City Distance Mag. Time & Date
Minimum magnitude displayed is 2.5.

Coastal Water Temperatures

Place Temperature

Stations

Nearby Weather Stations

Station Location Temp. Windchill Dew Point Humidity Wind Precip. Elev Updated Type